createdAt,value
2022-12-03T00:00:54.769Z,96367.69
2022-12-03T00:03:23.505Z,96306.50
2022-12-03T00:05:50.825Z,96429.41
2022-12-03T00:08:18.201Z,96268.75
2022-12-03T00:10:45.058Z,96351.81
2022-12-03T00:13:12.071Z,96357.03
2022-12-03T00:15:38.989Z,96410.34
2022-12-03T00:18:07.538Z,96324.91
2022-12-03T00:20:35.402Z,96458.78
2022-12-03T00:23:02.381Z,96442.09
2022-12-03T00:25:29.187Z,96366.22
2022-12-03T00:27:56.233Z,96280.09
2022-12-03T00:30:23.168Z,96399.75
2022-12-03T00:32:50.064Z,96445.78
2022-12-03T00:35:18.128Z,96469.13
2022-12-03T00:37:46.092Z,96416.50
2022-12-03T00:40:13.194Z,96262.66
2022-12-03T00:42:40.545Z,96454.78
2022-12-03T00:45:08.141Z,96444.00
2022-12-03T00:47:35.402Z,96440.28
2022-12-03T00:50:05.684Z,96430.38
2022-12-03T00:52:32.841Z,96361.09
2022-12-03T00:55:01.860Z,96436.28
2022-12-03T00:57:28.736Z,96460.09
2022-12-03T00:59:55.814Z,96374.13
2022-12-03T01:02:22.757Z,96369.94
2022-12-03T01:04:50.277Z,96433.69
2022-12-03T01:07:17.636Z,96465.13
2022-12-03T01:09:44.466Z,96386.25
2022-12-03T01:12:17.359Z,96300.22
2022-12-03T01:14:45.160Z,96482.84
2022-12-03T01:17:13.527Z,96485.19
2022-12-03T01:19:46.501Z,96388.44
2022-12-03T01:22:15.159Z,96470.00
2022-12-03T01:24:42.149Z,96478.34
2022-12-03T01:27:09.174Z,96504.81
2022-12-03T01:29:35.970Z,96484.34
2022-12-03T01:32:02.956Z,96483.56
2022-12-03T01:34:30.971Z,96447.25
2022-12-03T01:36:57.945Z,96441.06
2022-12-03T01:39:24.913Z,96477.13
2022-12-03T01:41:53.277Z,96387.66
2022-12-03T01:44:23.957Z,96491.50
2022-12-03T01:46:53.665Z,96426.31
2022-12-03T01:49:24.979Z,96329.19
2022-12-03T01:51:53.783Z,96483.38
2022-12-03T01:54:29.582Z,96483.72
2022-12-03T01:56:56.653Z,96479.19
2022-12-03T01:59:34.980Z,96373.38
2022-12-03T02:02:19.239Z,96476.94
2022-12-03T02:04:49.541Z,96479.38
2022-12-03T02:07:18.860Z,96444.28
2022-12-03T02:09:46.022Z,96457.31
2022-12-03T02:12:15.757Z,96438.22
2022-12-03T02:14:43.419Z,96462.16
2022-12-03T02:17:11.904Z,96466.78
2022-12-03T02:19:39.573Z,96448.97
2022-12-03T02:22:28.174Z,96469.75
2022-12-03T02:25:07.086Z,96475.38
2022-12-03T02:27:34.018Z,96362.47
2022-12-03T02:30:00.996Z,96294.50
2022-12-03T02:32:28.949Z,96474.09
2022-12-03T02:34:56.185Z,96445.31
2022-12-03T02:37:29.729Z,96355.97
2022-12-03T02:40:01.370Z,96398.94
2022-12-03T02:42:29.806Z,96360.47
2022-12-03T02:45:04.703Z,96472.09
2022-12-03T02:47:35.498Z,96502.59
2022-12-03T02:50:03.389Z,96465.28
2022-12-03T02:52:30.961Z,96449.84
2022-12-03T02:54:59.089Z,96505.78
2022-12-03T02:57:27.125Z,96466.97
2022-12-03T02:59:54.095Z,96450.63
2022-12-03T03:02:21.070Z,96426.91
2022-12-03T03:04:49.110Z,96418.22
2022-12-03T03:07:16.846Z,96474.38
2022-12-03T03:09:43.787Z,96458.03
2022-12-03T03:12:11.121Z,96469.78
2022-12-03T03:14:38.607Z,96368.47
2022-12-03T03:17:05.997Z,96362.03
2022-12-03T03:19:33.206Z,96443.00
2022-12-03T03:22:01.170Z,96438.47
2022-12-03T03:24:28.217Z,96470.53
2022-12-03T03:26:55.603Z,96418.50
2022-12-03T03:29:28.681Z,96318.13
2022-12-03T03:31:55.820Z,96434.19
2022-12-03T03:34:23.204Z,96332.63
2022-12-03T03:36:50.582Z,96463.25
2022-12-03T03:39:17.445Z,96463.59
2022-12-03T03:41:46.756Z,96398.06
2022-12-03T03:44:14.567Z,96390.00
2022-12-03T03:46:42.717Z,96386.97
2022-12-03T03:49:10.499Z,96453.00
2022-12-03T03:51:38.963Z,96515.66
2022-12-03T03:54:06.907Z,96431.09
2022-12-03T03:56:35.084Z,96484.63
2022-12-03T03:59:03.950Z,96423.88
2022-12-03T04:01:31.916Z,96485.13
2022-12-03T04:03:59.655Z,96404.00
2022-12-03T04:06:27.551Z,96489.81
2022-12-03T04:08:54.871Z,96441.53
2022-12-03T04:11:22.107Z,96389.38
2022-12-03T04:13:51.039Z,96309.25
2022-12-03T04:16:18.003Z,96398.66
2022-12-03T04:18:44.895Z,96524.34
2022-12-03T04:21:14.549Z,96485.53
2022-12-03T04:23:41.323Z,96472.94
2022-12-03T04:26:08.297Z,96449.41
2022-12-03T04:28:35.251Z,96476.25
2022-12-03T04:31:02.228Z,96508.03
2022-12-03T04:33:29.182Z,96496.91
2022-12-03T04:35:56.116Z,96457.25
2022-12-03T04:38:23.003Z,96480.13
2022-12-03T04:40:49.952Z,96492.72
2022-12-03T04:43:16.863Z,96486.81
2022-12-03T04:45:44.946Z,96453.97
2022-12-03T04:48:12.345Z,96505.41
2022-12-03T04:50:39.260Z,96497.94
2022-12-03T04:53:06.375Z,96464.75
2022-12-03T04:55:33.853Z,96525.66
2022-12-03T04:58:01.275Z,96468.03
2022-12-03T05:00:28.639Z,96505.59
2022-12-03T05:02:55.670Z,96514.97
2022-12-03T05:05:22.945Z,96505.75
2022-12-03T05:07:51.063Z,96320.75
2022-12-03T05:10:18.551Z,96472.53
2022-12-03T05:12:45.899Z,96484.38
2022-12-03T05:15:12.917Z,96347.66
2022-12-03T05:17:39.774Z,96505.75
2022-12-03T05:20:09.621Z,96505.75
2022-12-03T05:22:36.836Z,96509.59
2022-12-03T05:25:04.337Z,96508.09
2022-12-03T05:27:31.672Z,96522.16
2022-12-03T05:29:58.629Z,96523.81
2022-12-03T05:32:26.513Z,96527.03
2022-12-03T05:34:53.779Z,96502.41
2022-12-03T05:37:20.945Z,96516.78
2022-12-03T05:39:47.980Z,96439.72
2022-12-03T05:42:14.926Z,96532.28
2022-12-03T05:44:41.866Z,96529.59
2022-12-03T05:47:08.753Z,96487.50
2022-12-03T05:49:35.772Z,96445.56
2022-12-03T05:52:02.732Z,96540.53
2022-12-03T05:54:30.092Z,96510.47
2022-12-03T05:56:57.096Z,96525.06
2022-12-03T05:59:24.105Z,96546.28
2022-12-03T06:01:50.956Z,96552.44
2022-12-03T06:04:18.901Z,96555.66
2022-12-03T06:06:45.782Z,96556.34
2022-12-03T06:09:13.306Z,96550.09
2022-12-03T06:11:40.181Z,96565.06
2022-12-03T06:14:07.285Z,96560.34
2022-12-03T06:16:34.221Z,96548.16
2022-12-03T06:19:01.528Z,96538.25
2022-12-03T06:21:28.569Z,96562.69
2022-12-03T06:23:55.523Z,96554.28
2022-12-03T06:26:22.537Z,96595.88
2022-12-03T06:28:50.012Z,96564.69
2022-12-03T06:31:17.579Z,96575.03
2022-12-03T06:33:44.829Z,96558.88
2022-12-03T06:36:11.858Z,96568.56
2022-12-03T06:38:39.254Z,96533.41
2022-12-03T06:41:06.132Z,96535.75
2022-12-03T06:43:33.070Z,96568.13
2022-12-03T06:46:00.194Z,96444.41
2022-12-03T06:48:27.554Z,96553.31
2022-12-03T06:50:55.037Z,96454.47
2022-12-03T06:53:22.488Z,96573.69
2022-12-03T06:55:49.266Z,96522.44
2022-12-03T06:58:16.238Z,96568.97
2022-12-03T07:00:43.381Z,96462.38
2022-12-03T07:03:16.521Z,96565.44
2022-12-03T07:05:43.847Z,96538.75
2022-12-03T07:08:10.920Z,96537.59
2022-12-03T07:10:38.339Z,96510.47
2022-12-03T07:13:05.238Z,96537.03
2022-12-03T07:15:32.118Z,96582.50
2022-12-03T07:17:59.380Z,96587.19
2022-12-03T07:20:26.558Z,96597.63
2022-12-03T07:22:53.426Z,96519.94
2022-12-03T07:25:23.400Z,96552.22
2022-12-03T07:27:51.153Z,96412.09
2022-12-03T07:30:19.443Z,96572.31
2022-12-03T07:32:46.223Z,96592.56
2022-12-03T07:35:13.553Z,96593.09
2022-12-03T07:37:40.733Z,96536.53
2022-12-03T07:40:08.120Z,96541.94
2022-12-03T07:42:35.412Z,96597.28
2022-12-03T07:45:02.859Z,96606.56
2022-12-03T07:47:30.201Z,96594.13
2022-12-03T07:49:57.215Z,96503.59
2022-12-03T07:52:24.619Z,96582.66
2022-12-03T07:54:51.847Z,96603.44
2022-12-03T07:57:19.490Z,96538.81
2022-12-03T07:59:46.379Z,96577.81
2022-12-03T08:02:19.532Z,96622.31
2022-12-03T08:04:47.857Z,96570.84
2022-12-03T08:07:14.829Z,96558.16
2022-12-03T08:09:42.258Z,96555.88
2022-12-03T08:12:30.413Z,96606.56
2022-12-03T08:14:57.639Z,96612.84
2022-12-03T08:17:27.036Z,96587.13
2022-12-03T08:19:54.117Z,96602.31
2022-12-03T08:22:21.048Z,96599.88
2022-12-03T08:24:48.001Z,96612.75
2022-12-03T08:27:19.700Z,96623.03
2022-12-03T08:29:46.928Z,96610.22
2022-12-03T08:32:14.043Z,96635.59
2022-12-03T08:34:43.327Z,96628.59
2022-12-03T08:37:20.324Z,96597.56
2022-12-03T08:39:50.495Z,96626.59
2022-12-03T08:42:22.134Z,96604.22
2022-12-03T08:44:49.462Z,96640.50
2022-12-03T08:47:21.629Z,96627.81
2022-12-03T08:49:55.687Z,96631.34
2022-12-03T08:52:30.770Z,96537.53
2022-12-03T08:54:57.874Z,96600.06
2022-12-03T08:57:33.620Z,96628.25
2022-12-03T09:00:15.766Z,96627.69
2022-12-03T09:02:48.260Z,96610.47
2022-12-03T09:05:32.823Z,96465.75
2022-12-03T09:07:59.893Z,96631.56
2022-12-03T09:10:27.056Z,96605.69
2022-12-03T09:12:54.022Z,96628.66
2022-12-03T09:15:20.918Z,96554.81
2022-12-03T09:17:47.936Z,96590.75
2022-12-03T09:20:15.023Z,96489.25
2022-12-03T09:22:42.304Z,96621.13
2022-12-03T09:25:10.490Z,96618.50
2022-12-03T09:27:37.887Z,96622.78
2022-12-03T09:30:06.192Z,96626.91
2022-12-03T09:32:33.507Z,96612.78
2022-12-03T09:35:00.880Z,96574.06
2022-12-03T09:37:28.119Z,96589.94
2022-12-03T09:39:54.947Z,96528.31
2022-12-03T09:42:22.470Z,96605.28
2022-12-03T09:44:49.316Z,96619.66
2022-12-03T09:47:16.571Z,96616.94
2022-12-03T09:49:44.290Z,96507.03
2022-12-03T09:52:20.819Z,96610.25
2022-12-03T09:54:48.266Z,96593.06
2022-12-03T09:57:16.913Z,96518.47
2022-12-03T09:59:43.953Z,96503.47
2022-12-03T10:02:31.504Z,96565.47
2022-12-03T10:04:59.074Z,96560.22
2022-12-03T10:07:26.612Z,96545.75
2022-12-03T10:09:54.328Z,96447.50
2022-12-03T10:12:24.913Z,96588.63
2022-12-03T10:14:53.784Z,96587.50
2022-12-03T10:17:21.690Z,96608.22
2022-12-03T10:19:48.776Z,96497.53
2022-12-03T10:22:16.170Z,96583.41
2022-12-03T10:24:43.119Z,96556.50
2022-12-03T10:27:30.698Z,96515.44
2022-12-03T10:30:00.590Z,96579.09
2022-12-03T10:32:49.397Z,96568.91
2022-12-03T10:35:39.651Z,96566.81
2022-12-03T10:38:20.188Z,96568.59
2022-12-03T10:40:47.261Z,96568.91
2022-12-03T10:43:25.200Z,96565.13
2022-12-03T10:46:03.558Z,96563.00
2022-12-03T10:48:31.653Z,96559.44
2022-12-03T10:51:20.226Z,96506.66
2022-12-03T10:53:49.950Z,96550.06
2022-12-03T10:56:28.779Z,96520.06
2022-12-03T10:58:56.227Z,96448.44
2022-12-03T11:01:25.854Z,96585.44
2022-12-03T11:04:04.145Z,96559.03
2022-12-03T11:06:32.124Z,96510.59
2022-12-03T11:09:06.939Z,96433.59
2022-12-03T11:11:36.255Z,96544.06
2022-12-03T11:14:04.994Z,96542.50
2022-12-03T11:16:47.292Z,96545.41
2022-12-03T11:19:38.852Z,96543.84
2022-12-03T11:22:05.706Z,96545.63
2022-12-03T11:24:40.401Z,96533.25
2022-12-03T11:27:15.289Z,96548.31
2022-12-03T11:29:48.011Z,96540.59
2022-12-03T11:32:59.888Z,96543.38
2022-12-03T11:35:35.230Z,96540.59
2022-12-03T11:38:39.247Z,96540.72
2022-12-03T11:41:17.706Z,96527.41
2022-12-03T11:43:53.914Z,96533.22
2022-12-03T11:46:22.628Z,96524.97
2022-12-03T11:48:51.575Z,96539.72
2022-12-03T11:51:23.073Z,96489.72
2022-12-03T11:53:52.655Z,96477.13
2022-12-03T11:56:24.667Z,96537.56
2022-12-03T11:59:03.539Z,96523.06
2022-12-03T12:01:39.269Z,96537.78
2022-12-03T12:04:08.579Z,96515.72
2022-12-03T12:06:44.288Z,96525.66
2022-12-03T12:09:11.438Z,96519.72
2022-12-03T12:11:39.678Z,96513.28
2022-12-03T12:14:11.707Z,96501.88
2022-12-03T12:16:51.109Z,96522.09
2022-12-03T12:19:40.754Z,96526.13
2022-12-03T12:22:22.825Z,96522.53
2022-12-03T12:24:52.897Z,96512.28
2022-12-03T12:27:30.059Z,96519.19
2022-12-03T12:30:09.222Z,96340.19
2022-12-03T12:32:47.429Z,96505.47
2022-12-03T12:35:19.752Z,96512.94
2022-12-03T12:38:00.622Z,96512.06
2022-12-03T12:40:32.923Z,96314.91
2022-12-03T12:43:08.482Z,96504.47
2022-12-03T12:45:42.030Z,96470.44
2022-12-03T12:48:18.340Z,96516.72
2022-12-03T12:50:49.032Z,96507.03
2022-12-03T12:53:25.183Z,96511.84
2022-12-03T12:55:58.615Z,96515.06
2022-12-03T12:58:28.809Z,96512.81
2022-12-03T13:01:07.805Z,96475.34
2022-12-03T13:03:39.424Z,96499.00
2022-12-03T13:06:06.682Z,96526.22
2022-12-03T13:08:39.639Z,96510.38
2022-12-03T13:11:33.248Z,96496.88
2022-12-03T13:14:33.231Z,96497.22
2022-12-03T13:17:01.801Z,96488.63
2022-12-03T13:19:43.302Z,96418.13
2022-12-03T13:22:18.591Z,96505.91
2022-12-03T13:24:51.189Z,96488.63
2022-12-03T13:27:18.269Z,96500.13
2022-12-03T13:29:47.589Z,96487.06
2022-12-03T13:32:19.476Z,96484.94
2022-12-03T13:34:47.587Z,96505.13
2022-12-03T13:37:20.210Z,96510.72
2022-12-03T13:39:51.925Z,96493.66
2022-12-03T13:42:25.173Z,96504.03
2022-12-03T13:44:53.493Z,96477.00
2022-12-03T13:47:22.096Z,96498.88
2022-12-03T13:50:00.676Z,96521.16
2022-12-03T13:52:32.872Z,96492.84
2022-12-03T13:55:03.621Z,96321.09
2022-12-03T13:57:30.883Z,96319.19
2022-12-03T13:59:57.762Z,96485.69
2022-12-03T14:02:24.719Z,96525.31
2022-12-03T14:04:56.842Z,96518.03
2022-12-03T14:07:34.057Z,96504.97
2022-12-03T14:10:01.645Z,96472.72
2022-12-03T14:12:28.900Z,96477.84
2022-12-03T14:14:55.851Z,96485.44
2022-12-03T14:17:23.808Z,96519.34
2022-12-03T14:19:52.389Z,96507.63
2022-12-03T14:22:19.773Z,96522.69
2022-12-03T14:24:47.716Z,96529.28
2022-12-03T14:27:16.780Z,96510.31
2022-12-03T14:29:43.602Z,96500.03
2022-12-03T14:32:10.645Z,96443.78
2022-12-03T14:34:38.249Z,96529.03
2022-12-03T14:37:06.754Z,96520.75
2022-12-03T14:39:33.925Z,96463.06
2022-12-03T14:42:00.920Z,96487.16
2022-12-03T14:44:28.870Z,96326.34
2022-12-03T14:46:57.452Z,96538.59
2022-12-03T14:49:25.307Z,96534.69
2022-12-03T14:51:52.363Z,96382.88
2022-12-03T14:54:20.761Z,96484.94
2022-12-03T14:56:47.888Z,96558.44
2022-12-03T14:59:15.303Z,96550.41
2022-12-03T15:01:42.240Z,96415.94
2022-12-03T15:04:09.618Z,96430.31
2022-12-03T15:06:36.788Z,96533.72
2022-12-03T15:09:04.368Z,96562.69
2022-12-03T15:11:40.236Z,96472.91
2022-12-03T15:14:12.732Z,96552.97
2022-12-03T15:16:40.619Z,96507.53
2022-12-03T15:19:10.409Z,96560.22
2022-12-03T15:21:37.566Z,96527.75
2022-12-03T15:24:05.786Z,96567.69
2022-12-03T15:26:34.180Z,96553.66
2022-12-03T15:31:55.289Z,96547.25
2022-12-03T15:34:23.303Z,96591.34
2022-12-03T15:36:50.984Z,96488.81
2022-12-03T15:39:17.838Z,96516.75
2022-12-03T15:41:44.891Z,96545.09
2022-12-03T15:44:12.908Z,96553.16
2022-12-03T15:46:39.952Z,96575.25
2022-12-03T15:49:06.857Z,96553.91
2022-12-03T15:51:33.789Z,96563.59
2022-12-03T15:54:00.951Z,96563.59
2022-12-03T15:56:28.235Z,96413.19
2022-12-03T15:58:55.306Z,96578.91
2022-12-03T16:01:23.744Z,96564.13
2022-12-03T16:03:50.943Z,96543.53
2022-12-03T16:06:17.990Z,96576.66
2022-12-03T16:08:44.864Z,96517.72
2022-12-03T16:11:12.930Z,96501.78
2022-12-03T16:13:39.936Z,96605.00
2022-12-03T16:16:07.094Z,96549.91
2022-12-03T16:18:34.292Z,96477.63
2022-12-03T16:21:01.398Z,96579.34
2022-12-03T16:23:29.007Z,96513.44
2022-12-03T16:25:57.232Z,96581.69
2022-12-03T16:28:26.148Z,96580.47
2022-12-03T16:30:54.411Z,96472.13
2022-12-03T16:33:27.266Z,96499.34
2022-12-03T16:35:55.314Z,96453.97
2022-12-03T16:38:22.570Z,96593.91
2022-12-03T16:40:49.690Z,96570.88
2022-12-03T16:43:16.699Z,96578.50
2022-12-03T16:45:44.637Z,96585.44
2022-12-03T16:48:11.752Z,96508.34
2022-12-03T16:50:39.046Z,96599.25
2022-12-03T16:53:07.155Z,96620.75
2022-12-03T16:55:35.186Z,96566.13
2022-12-03T16:58:02.754Z,96612.22
2022-12-03T17:00:29.987Z,96626.97
2022-12-03T17:02:57.026Z,96597.59
2022-12-03T17:05:24.582Z,96416.78
2022-12-03T17:07:52.147Z,96606.13
2022-12-03T17:10:19.435Z,96516.19
2022-12-03T17:13:10.166Z,96591.91
2022-12-03T17:15:35.678Z,96528.09
2022-12-03T17:18:04.647Z,96604.75
2022-12-03T17:20:32.974Z,96520.88
2022-12-03T17:23:00.742Z,96581.69
2022-12-03T17:25:28.284Z,96578.69
2022-12-03T17:27:55.442Z,96568.66
2022-12-03T17:30:22.798Z,96612.19
2022-12-03T17:36:22.383Z,96580.56
2022-12-03T17:38:49.479Z,96584.13
2022-12-03T17:41:16.431Z,96611.47
2022-12-03T17:43:43.304Z,96595.22
2022-12-03T17:46:10.276Z,96591.25
2022-12-03T17:48:37.200Z,96607.41
2022-12-03T17:51:04.216Z,96574.00
2022-12-03T17:53:31.226Z,96578.28
2022-12-03T17:55:57.993Z,96573.09
2022-12-03T17:58:24.962Z,96454.84
2022-12-03T18:00:56.032Z,96491.41
2022-12-03T18:03:27.565Z,96561.63
2022-12-03T18:05:54.601Z,96473.84
2022-12-03T18:08:21.546Z,96591.81
2022-12-03T18:10:49.318Z,96592.94
2022-12-03T18:13:16.379Z,96527.44
2022-12-03T18:15:43.403Z,96549.13
2022-12-03T18:18:10.674Z,96577.06
2022-12-03T18:20:37.958Z,96535.50
2022-12-03T18:23:05.660Z,96596.41
2022-12-03T18:25:32.788Z,96546.59
2022-12-03T18:28:01.301Z,96621.13
2022-12-03T18:30:28.637Z,96522.16
2022-12-03T18:32:56.211Z,96632.59
2022-12-03T18:35:23.849Z,96591.50
2022-12-03T18:37:51.440Z,96596.75
2022-12-03T18:40:24.003Z,96572.72
2022-12-03T18:42:51.127Z,96593.72
2022-12-03T18:45:19.278Z,96621.72
2022-12-03T18:47:46.552Z,96516.84
2022-12-03T18:50:14.446Z,96604.53
2022-12-03T18:52:41.460Z,96618.59
2022-12-03T18:55:14.889Z,96621.38
2022-12-03T18:57:41.894Z,96620.66
2022-12-03T19:00:13.451Z,96606.78
2022-12-03T19:05:29.018Z,96633.09
2022-12-03T19:07:56.340Z,96613.03
2022-12-03T19:10:24.105Z,96656.22
2022-12-03T19:12:51.435Z,96570.38
2022-12-03T19:15:19.194Z,96626.44
2022-12-03T19:17:49.724Z,96617.75
2022-12-03T19:20:16.734Z,96611.31
2022-12-03T19:22:44.168Z,96608.31
2022-12-03T19:25:12.102Z,96621.34
2022-12-03T19:27:39.102Z,96641.38
2022-12-03T19:30:06.919Z,96594.72
2022-12-03T19:32:35.052Z,96646.94
2022-12-03T19:35:02.692Z,96643.38
2022-12-03T19:37:32.108Z,96623.69
2022-12-03T19:39:59.912Z,96646.22
2022-12-03T19:42:26.851Z,96462.53
2022-12-03T19:44:53.868Z,96549.31
2022-12-03T19:47:21.129Z,96592.38
2022-12-03T19:49:48.625Z,96647.63
2022-12-03T19:52:15.908Z,96548.16
2022-12-03T19:54:44.103Z,96489.72
2022-12-03T19:57:11.105Z,96624.13
2022-12-03T19:59:38.920Z,96632.31
2022-12-03T20:02:06.358Z,96594.44
2022-12-03T20:04:33.453Z,96622.19
2022-12-03T20:07:00.696Z,96591.97
2022-12-03T20:09:28.079Z,96646.53
2022-12-03T20:11:55.443Z,96622.22
2022-12-03T20:14:22.602Z,96458.47
2022-12-03T20:16:50.000Z,96618.44
2022-12-03T20:19:18.221Z,96638.25
2022-12-03T20:21:45.452Z,96641.47
2022-12-03T20:24:17.428Z,96631.97
2022-12-03T20:26:44.870Z,96646.34
2022-12-03T20:29:12.336Z,96535.19
2022-12-03T20:31:39.902Z,96422.00
2022-12-03T20:34:07.171Z,96609.59
2022-12-03T20:36:34.187Z,96638.53
2022-12-03T20:39:04.004Z,96630.06
2022-12-03T20:41:31.033Z,96620.94
2022-12-03T20:43:58.074Z,96628.56
2022-12-03T20:46:30.108Z,96661.19
2022-12-03T20:48:57.844Z,96647.50
2022-12-03T20:51:28.301Z,96656.34
2022-12-03T20:53:58.546Z,96650.13
2022-12-03T20:56:29.735Z,96651.50
2022-12-03T20:58:57.071Z,96651.94
2022-12-03T21:01:26.298Z,96659.06
2022-12-03T21:03:55.508Z,96652.56
2022-12-03T21:06:24.861Z,96642.19
2022-12-03T21:08:56.202Z,96650.88
2022-12-03T21:11:26.721Z,96655.56
2022-12-03T21:13:54.673Z,96643.53
2022-12-03T21:16:45.615Z,96623.91
2022-12-03T21:19:11.294Z,96615.88
2022-12-03T21:21:37.994Z,96549.50
2022-12-03T21:24:06.222Z,96581.22
2022-12-03T21:26:33.603Z,96595.53
2022-12-03T21:29:00.516Z,96670.81
2022-12-03T21:31:27.554Z,96448.41
2022-12-03T21:33:56.037Z,96634.88
2022-12-03T21:36:24.684Z,96671.19
2022-12-03T21:38:53.107Z,96623.00
2022-12-03T21:41:20.508Z,96607.81
2022-12-03T21:43:48.161Z,96661.09
2022-12-03T21:47:08.419Z,96519.50
2022-12-03T21:49:02.601Z,96650.00
2022-12-03T21:51:29.779Z,96660.31
2022-12-03T21:53:58.442Z,96663.47
2022-12-03T21:56:25.520Z,96653.56
2022-12-03T21:58:53.420Z,96641.38
2022-12-03T22:01:23.270Z,96622.91
2022-12-03T22:03:50.832Z,96619.63
2022-12-03T22:06:18.867Z,96535.75
2022-12-03T22:08:46.219Z,96663.81
2022-12-03T22:11:21.964Z,96655.41
2022-12-03T22:13:49.490Z,96602.13
2022-12-03T22:16:19.684Z,96580.81
2022-12-03T22:18:50.321Z,96642.44
2022-12-03T22:21:19.750Z,96656.63
2022-12-03T22:23:49.100Z,96536.28
2022-12-03T22:26:17.979Z,96651.19
2022-12-03T22:28:48.809Z,96537.63
2022-12-03T22:31:17.740Z,96502.38
2022-12-03T22:33:45.201Z,96447.78
2022-12-03T22:36:20.108Z,96642.66
2022-12-03T22:38:48.736Z,96635.13
2022-12-03T22:41:15.795Z,96631.34
2022-12-03T22:43:42.881Z,96633.34
2022-12-03T22:46:11.654Z,96617.22
2022-12-03T22:48:39.379Z,96638.81
2022-12-03T22:51:17.973Z,96626.28
2022-12-03T22:53:45.564Z,96631.81
2022-12-03T22:56:13.011Z,96639.59
2022-12-03T22:58:40.731Z,96534.63
2022-12-03T23:01:08.081Z,96644.44
2022-12-03T23:03:36.221Z,96619.56
2022-12-03T23:06:10.598Z,96634.34
2022-12-03T23:08:38.372Z,96638.81
2022-12-03T23:11:05.882Z,96626.16
2022-12-03T23:13:33.109Z,96601.06
2022-12-03T23:16:00.222Z,96618.88
2022-12-03T23:18:27.596Z,96590.97
2022-12-03T23:20:56.284Z,96610.47
2022-12-03T23:23:25.858Z,96617.09
2022-12-03T23:26:05.387Z,96621.16
2022-12-03T23:28:34.350Z,96617.69
2022-12-03T23:31:03.593Z,96641.97
2022-12-03T23:33:36.672Z,96617.50
2022-12-03T23:36:07.158Z,96423.00
2022-12-03T23:38:34.573Z,96612.88
2022-12-03T23:41:10.696Z,96613.59
2022-12-03T23:43:38.756Z,96612.88
2022-12-03T23:46:11.289Z,96610.81
2022-12-03T23:48:38.454Z,96622.78
2022-12-03T23:51:17.125Z,96623.41
2022-12-03T23:53:45.069Z,96574.88
2022-12-03T23:56:19.972Z,96512.06
2022-12-03T23:58:47.725Z,96629.66
